100 Mile House, British Columbia

2:45 PM PDT on September 02, 2015 (GMT -0700)
108 Ranch | | Change Station
CLOSE
Current Station
Personal Weather Station
Location: 108 Mile Ranch, BRITISH COLUMBIA
Elevation: 3077 ft
Nearby Weather Stations

Elev 3077 ft 51.74 °N, 121.37 °W | Updated 7 minutes ago

Mostly Cloudy
Mostly Cloudy
59.0 °F
Feels Like 59.0 °F
N
4.7
Wind Variable Wind from North

Today
High -- | Low -- °F
--% Chance of Precip.
Yesterday
High -- | Low -- °F
Precip. -- in
6:19 AM 7:50 PM
Waning Gibbous, 77% visible
Pressure 29.78 in
Visibility 9.0 miles
Clouds Scattered Clouds 10000 ft
Mostly Cloudy 12000 ft
Dew Point 41 °F
Humidity 52%
Rainfall 0.18 in
Snow Depth Not available.
UV 4 out of 12
Pollen Not available.
Air Quality Not available.
Flu Activity Not available.
METAR CYIN 022100Z AUTO 18010KT 140V210 9SM SCT100 BKN120 12/M01 A2975 RMK SLP082 DENSITY ALT 4300FT
Pressure 29.78 in
Visibility 9.0 miles
Clouds Scattered Clouds 10000 ft
Mostly Cloudy 12000 ft
Dew Point 41 °F
Humidity 52%
Rainfall 0.18 in
Snow Depth Not available.
UV 4 out of 12
Pollen Not available.
Air Quality Not available.
Flu Activity Not available.
METAR CYIN 022100Z AUTO 18010KT 140V210 9SM SCT100 BKN120 12/M01 A2975 RMK SLP082 DENSITY ALT 4300FT

10-Day Weather Forecast

×

Almanac

Astronomy

Sep. 02, 2015 Rise Set
Actual Time
Civil Twilight
Nautical Twilight
Astronomical Twilight
Moon
Length of Visible Light
Length of Day
Tomorrow will be .
, % of the Moon is Illuminated

Today's Extremes

Country Highs Country Lows

Community

WunderPhotos

Upload Photos

1,851,818 photos uploaded!

WunderBlogs® & News

Nearby

Air Quality

  Air Quality AQ Index Pollutant
Not available.

Snow Depth

Station Depth Elevation

Earthquake Activity

City Distance Mag. Time & Date
Minimum magnitude displayed is 2.5.

Coastal Water Temperatures

Place Temperature

Stations

Nearby Weather Stations

Station Location Temp. Windchill Dew Point Humidity Wind Precip. Elev Updated Type